createdAt,value
2019-05-30T00:00:18.067Z,87.13
2019-05-30T00:01:02.434Z,86.94
2019-05-30T00:02:02.944Z,86.57
2019-05-30T00:03:02.706Z,86.85
2019-05-30T00:04:03.171Z,86.94
2019-05-30T00:05:02.810Z,86.76
2019-05-30T00:06:02.970Z,86.66
2019-05-30T00:07:02.965Z,86.94
2019-05-30T00:08:02.767Z,87.04
2019-05-30T00:09:03.264Z,87.04
2019-05-30T00:10:03.028Z,87.71
2019-05-30T00:11:03.042Z,87.42
2019-05-30T00:12:03.246Z,87.32
2019-05-30T00:13:03.129Z,87.61
2019-05-30T00:14:03.121Z,87.71
2019-05-30T00:15:04.900Z,87.42
2019-05-30T00:16:03.252Z,87.8
2019-05-30T00:17:03.355Z,88.56
2019-05-30T00:18:03.296Z,88.46
2019-05-30T00:19:03.294Z,88.28
2019-05-30T00:20:03.519Z,88.56
2019-05-30T00:21:03.231Z,88.56
2019-05-30T00:22:03.850Z,88.66
2019-05-30T00:23:03.373Z,88.66
2019-05-30T00:24:02.414Z,89.32
2019-05-30T00:25:02.533Z,89.23
2019-05-30T00:26:03.060Z,89.32
2019-05-30T00:27:02.681Z,89.94
2019-05-30T00:28:04.927Z,89.85
2019-05-30T00:29:02.767Z,89.66
2019-05-30T00:30:01.775Z,89.61
2019-05-30T00:31:02.833Z,90.04
2019-05-30T00:32:01.997Z,89.94
2019-05-30T00:33:03.516Z,90.42
2019-05-30T00:34:02.501Z,90.42
2019-05-30T00:35:02.157Z,90.42
2019-05-30T00:36:02.296Z,90.42
2019-05-30T00:37:02.285Z,90.33
2019-05-30T00:38:02.146Z,90.42
2019-05-30T00:39:02.150Z,90.33
2019-05-30T00:40:02.378Z,90.7
2019-05-30T00:41:02.414Z,90.61
2019-05-30T00:42:02.408Z,90.42
2019-05-30T00:43:02.472Z,90.61
2019-05-30T00:44:02.333Z,90.61
2019-05-30T00:45:08.693Z,90.61
2019-05-30T00:46:02.437Z,90.8
2019-05-30T00:47:04.317Z,90.61
2019-05-30T00:48:02.522Z,90.42
2019-05-30T00:49:02.593Z,90.52
2019-05-30T00:50:02.755Z,90.61
2019-05-30T00:51:02.816Z,90.61
2019-05-30T00:52:02.956Z,90.33
2019-05-30T00:53:03.100Z,90.52
2019-05-30T00:54:03.078Z,90.61
2019-05-30T00:55:03.028Z,90.42
2019-05-30T00:56:04.725Z,90.52
2019-05-30T00:57:03.037Z,90.61
2019-05-30T00:58:02.960Z,90.33
2019-05-30T00:59:02.995Z,90.23
2019-05-30T01:00:03.264Z,90.52
2019-05-30T01:01:02.950Z,90.99
2019-05-30T01:02:02.764Z,91.08
2019-05-30T01:03:06.833Z,91.61
2019-05-30T01:04:02.567Z,91.23
2019-05-30T01:05:03.228Z,91.23
2019-05-30T01:06:02.876Z,91.61
2019-05-30T01:07:03.080Z,91.61
2019-05-30T01:08:03.234Z,91.89
2019-05-30T01:09:01.613Z,91.52
2019-05-30T01:10:01.604Z,92.08
2019-05-30T01:11:01.586Z,91.61
2019-05-30T01:12:01.608Z,91.89
2019-05-30T01:13:03.370Z,91.89
2019-05-30T01:14:01.555Z,91.71
2019-05-30T01:15:01.541Z,92.37
2019-05-30T01:16:01.538Z,92.46
2019-05-30T01:17:01.514Z,92.08
2019-05-30T01:18:01.557Z,92.85
2019-05-30T01:19:01.496Z,92.75
2019-05-30T01:20:01.529Z,92.75
2019-05-30T01:21:01.583Z,92.46
2019-05-30T01:22:01.647Z,93.13
2019-05-30T01:23:01.610Z,93.32
2019-05-30T01:24:01.729Z,93.13
2019-05-30T01:25:01.325Z,92.94
2019-05-30T01:26:01.772Z,92.94
2019-05-30T01:27:01.645Z,92.85
2019-05-30T01:28:01.929Z,92.94
2019-05-30T01:29:01.803Z,93.23
2019-05-30T01:30:01.824Z,93.7
2019-05-30T01:31:09.951Z,93.37
2019-05-30T01:32:01.783Z,93.13
2019-05-30T01:33:02.065Z,94.08
2019-05-30T01:34:01.892Z,94.18
2019-05-30T01:35:02.244Z,93.65
2019-05-30T01:36:02.097Z,93.84
2019-05-30T01:37:02.236Z,93.75
2019-05-30T01:38:02.082Z,93.65
2019-05-30T01:39:02.015Z,93.56
2019-05-30T01:40:02.181Z,93.94
2019-05-30T01:41:02.542Z,94.13
2019-05-30T01:42:02.104Z,94.23
2019-05-30T01:43:02.314Z,94.42
2019-05-30T01:44:02.217Z,94.51
2019-05-30T01:45:02.683Z,94.98
2019-05-30T01:46:02.475Z,94.89
2019-05-30T01:47:02.502Z,95.08
2019-05-30T01:48:02.874Z,94.89
2019-05-30T01:49:02.377Z,94.89
2019-05-30T01:50:02.431Z,94.89
2019-05-30T01:51:02.289Z,95.08
2019-05-30T01:52:02.343Z,94.98
2019-05-30T01:53:02.511Z,95.55
2019-05-30T01:54:01.103Z,95.17
2019-05-30T01:55:01.088Z,95.55
2019-05-30T01:56:01.084Z,95.55
2019-05-30T01:57:01.064Z,95.75
2019-05-30T01:58:01.818Z,95.75
2019-05-30T01:59:01.112Z,95.75
2019-05-30T02:00:01.117Z,95.46
2019-05-30T02:01:18.650Z,95.94
2019-05-30T02:02:01.336Z,95.75
2019-05-30T02:03:01.295Z,95.65
2019-05-30T02:04:01.530Z,95.94
2019-05-30T02:05:01.384Z,95.84
2019-05-30T02:06:01.343Z,95.94
2019-05-30T02:07:01.660Z,95.84
2019-05-30T02:08:01.414Z,95.84
2019-05-30T02:09:01.586Z,96.31
2019-05-30T02:10:01.558Z,95.84
2019-05-30T02:11:01.600Z,96.41
2019-05-30T02:12:01.713Z,96.12
2019-05-30T02:13:01.693Z,96.22
2019-05-30T02:14:01.982Z,96.12
2019-05-30T02:15:01.790Z,96.12
2019-05-30T02:16:02.025Z,96.41
2019-05-30T02:17:01.998Z,96.03
2019-05-30T02:18:01.873Z,96.22
2019-05-30T02:19:01.925Z,96.74
2019-05-30T02:20:02.039Z,96.88
2019-05-30T02:21:02.142Z,96.88
2019-05-30T02:22:02.064Z,96.83
2019-05-30T02:23:03.964Z,96.79
2019-05-30T02:24:02.131Z,96.83
2019-05-30T02:25:01.787Z,96.45
2019-05-30T02:26:02.015Z,96.36
2019-05-30T02:27:02.078Z,96.22
2019-05-30T02:28:01.769Z,96.36
2019-05-30T02:29:00.695Z,96.36
2019-05-30T02:30:00.686Z,96.93
2019-05-30T02:31:00.675Z,96.93
2019-05-30T02:32:01.388Z,96.64
2019-05-30T02:33:00.763Z,96.93
2019-05-30T02:34:01.006Z,97.31
2019-05-30T02:35:00.859Z,97.22
2019-05-30T02:36:01.192Z,97.6
2019-05-30T02:37:01.103Z,97.69
2019-05-30T02:38:00.968Z,97.22
2019-05-30T02:39:00.866Z,97.6
2019-05-30T02:40:07.119Z,97.88
2019-05-30T02:41:01.268Z,97.88
2019-05-30T02:42:00.916Z,97.88
2019-05-30T02:43:01.187Z,98.16
2019-05-30T02:44:01.175Z,98.26
2019-05-30T02:45:01.343Z,98.16
2019-05-30T02:46:00.916Z,98.26
2019-05-30T02:47:01.399Z,97.88
2019-05-30T02:48:01.201Z,97.88
2019-05-30T02:49:04.395Z,98.64
2019-05-30T02:50:01.469Z,98.64
2019-05-30T02:51:00.975Z,98.54
2019-05-30T02:52:02.409Z,98.83
2019-05-30T02:53:01.199Z,98.73
2019-05-30T02:54:01.501Z,98.73
2019-05-30T02:55:01.688Z,98.73
2019-05-30T02:56:01.390Z,99.21
2019-05-30T02:57:01.457Z,98.83
2019-05-30T02:58:01.279Z,98.83
2019-05-30T02:59:01.450Z,98.92
2019-05-30T03:00:01.879Z,99.4
2019-05-30T03:01:01.834Z,99.3
2019-05-30T03:02:08.769Z,99.11
2019-05-30T03:03:01.846Z,99.68
2019-05-30T03:04:01.790Z,99.4
2019-05-30T03:05:01.552Z,99.77
2019-05-30T03:06:01.756Z,99.58
2019-05-30T03:07:01.961Z,99.49
2019-05-30T03:08:01.940Z,99.68
2019-05-30T03:09:01.819Z,99.4
2019-05-30T03:10:02.152Z,99.4
2019-05-30T03:11:02.174Z,99.49
2019-05-30T03:12:01.881Z,99.97
2019-05-30T03:13:01.780Z,99.99
2019-05-30T03:14:02.005Z,99.92
2019-05-30T03:15:02.278Z,99.99
2019-05-30T03:16:01.941Z,99.99
2019-05-30T03:17:02.307Z,99.99
2019-05-30T03:18:02.115Z,99.99
2019-05-30T03:19:01.783Z,99.44
2019-05-30T03:20:00.127Z,99.54
2019-05-30T03:21:00.090Z,99.83
2019-05-30T03:22:00.085Z,99.73
2019-05-30T03:23:00.064Z,99.73
2019-05-30T03:24:00.060Z,99.35
2019-05-30T03:25:00.046Z,99.44
2019-05-30T03:26:00.033Z,99.64
2019-05-30T03:27:00.027Z,99.54
2019-05-30T03:28:00.013Z,99.54
2019-05-30T03:29:00.001Z,99.64
2019-05-30T03:29:59.992Z,99.73
2019-05-30T03:31:00.100Z,99.99
2019-05-30T03:32:29.321Z,99.99
2019-05-30T03:33:44.500Z,99.99
2019-05-30T03:34:39.112Z,99.99
2019-05-30T03:35:45.718Z,99.74
2019-05-30T03:36:38.866Z,99.16
2019-05-30T03:37:39.090Z,99.12
2019-05-30T03:38:39.037Z,97.98
2019-05-30T03:39:39.031Z,97.27
2019-05-30T03:40:38.776Z,97.27
2019-05-30T03:41:39.005Z,96.55
2019-05-30T03:42:39.007Z,95.41
2019-05-30T03:43:38.988Z,94.93
2019-05-30T03:44:38.976Z,93.84
2019-05-30T03:45:38.972Z,92.69
2019-05-30T03:46:38.963Z,91.88
2019-05-30T03:47:38.955Z,91.69
2019-05-30T03:48:38.944Z,90.79
2019-05-30T03:49:38.935Z,89.83
2019-05-30T03:50:38.927Z,89.4
2019-05-30T03:51:38.923Z,88.26
2019-05-30T03:52:38.922Z,87.06
2019-05-30T03:53:38.905Z,85.72
2019-05-30T03:54:38.922Z,84.81
2019-05-30T03:55:38.887Z,84.56
2019-05-30T03:56:38.641Z,82.94
2019-05-30T03:57:38.888Z,82.03
2019-05-30T03:58:38.870Z,80.98
2019-05-30T03:59:38.867Z,79.77
2019-05-30T04:00:38.866Z,78.63
2019-05-30T04:01:38.857Z,77.51
2019-05-30T04:02:59.302Z,76.18
2019-05-30T04:03:38.606Z,75.16
2019-05-30T04:04:38.878Z,73.63
2019-05-30T04:05:38.844Z,72.32
2019-05-30T04:06:38.831Z,71.4
2019-05-30T04:07:38.829Z,70.73
2019-05-30T04:08:38.818Z,69.23
2019-05-30T04:09:38.817Z,67.5
2019-05-30T04:10:38.822Z,66.67
2019-05-30T04:11:38.808Z,65.33
2019-05-30T04:12:38.810Z,64.31
2019-05-30T04:13:38.803Z,63.35
2019-05-30T04:14:38.801Z,62.19
2019-05-30T04:15:38.817Z,61.55
2019-05-30T04:16:38.797Z,61.27
2019-05-30T04:17:38.794Z,60.24
2019-05-30T04:18:38.793Z,59.28
2019-05-30T04:19:38.793Z,59.02
2019-05-30T04:20:38.783Z,58.25
2019-05-30T04:21:38.782Z,57.6
2019-05-30T04:22:38.787Z,56.93
2019-05-30T04:23:38.777Z,56.58
2019-05-30T04:24:38.779Z,55.13
2019-05-30T04:25:38.779Z,54.68
2019-05-30T04:26:38.774Z,53.43
2019-05-30T04:27:38.777Z,53.74
2019-05-30T04:28:38.800Z,52.69
2019-05-30T04:29:38.769Z,51.94
2019-05-30T04:30:38.792Z,51.07
2019-05-30T04:31:38.779Z,50.42
2019-05-30T04:32:38.787Z,49.84
2019-05-30T04:33:38.787Z,49.55
2019-05-30T04:34:38.780Z,48.42
2019-05-30T04:35:38.771Z,47.67
2019-05-30T04:36:38.778Z,47.48
2019-05-30T04:37:38.775Z,46.81
2019-05-30T04:38:38.790Z,45.84
2019-05-30T04:39:38.773Z,45.55
2019-05-30T04:40:38.789Z,44.9
2019-05-30T04:41:38.774Z,44.68
2019-05-30T04:42:38.777Z,44.59
2019-05-30T04:43:38.782Z,44.1
2019-05-30T04:44:38.782Z,44.29
2019-05-30T04:45:38.786Z,44.01
2019-05-30T04:47:38.788Z,43.35
2019-05-30T04:48:38.803Z,42.48
2019-05-30T04:49:38.787Z,42.48
2019-05-30T04:50:38.789Z,42.31
2019-05-30T04:51:38.792Z,41.25
2019-05-30T04:52:38.805Z,41.15
2019-05-30T04:53:38.794Z,40.47
2019-05-30T04:54:38.799Z,39.99
2019-05-30T04:55:38.799Z,40.11
2019-05-30T05:00:38.810Z,39.16
2019-05-30T05:01:38.817Z,38.58
2019-05-30T05:02:38.834Z,38.6
2019-05-30T05:03:48.545Z,38.02
2019-05-30T05:04:38.822Z,38.21
2019-05-30T05:21:38.865Z,34.27
2019-05-30T05:22:38.868Z,33.88
2019-05-30T05:23:38.873Z,33.29
2019-05-30T05:24:38.874Z,33.22
2019-05-30T05:25:38.878Z,33.12
2019-05-30T05:26:38.887Z,32.73
2019-05-30T05:27:38.899Z,32.82
2019-05-30T05:28:38.896Z,32.75
2019-05-30T05:29:38.899Z,32.65
2019-05-30T05:30:38.935Z,32.75
2019-05-30T05:31:38.910Z,32.57
2019-05-30T05:32:38.916Z,32.47
2019-05-30T05:33:38.922Z,31.51
2019-05-30T05:34:38.935Z,30.94
2019-05-30T05:35:38.937Z,30.85
2019-05-30T05:36:38.947Z,30.47
2019-05-30T05:37:38.953Z,29.5
2019-05-30T05:38:38.959Z,29.42
2019-05-30T05:39:38.963Z,29.21
2019-05-30T05:40:38.977Z,29.61
2019-05-30T05:41:38.989Z,29.81
2019-05-30T05:42:38.987Z,29.13
2019-05-30T05:43:38.994Z,28.75
2019-05-30T05:45:39.017Z,28.75
2019-05-30T05:46:39.019Z,28.55
2019-05-30T05:47:39.025Z,28.75
2019-05-30T05:48:39.042Z,28.57
2019-05-30T05:49:38.799Z,28.28
2019-05-30T05:50:39.052Z,28.68
2019-05-30T05:51:39.061Z,28.09
2019-05-30T05:52:39.068Z,27.33
2019-05-30T05:53:39.077Z,27.62
2019-05-30T05:54:39.093Z,27.05
2019-05-30T05:55:39.095Z,26.76
2019-05-30T05:56:39.105Z,26.17
2019-05-30T05:57:39.113Z,25.88
2019-05-30T05:58:39.132Z,26.06
2019-05-30T05:59:39.132Z,26.34
2019-05-30T06:00:39.148Z,26.63
2019-05-30T06:01:39.166Z,26.92
2019-05-30T06:02:39.169Z,27.2
2019-05-30T06:03:39.174Z,26.92
2019-05-30T06:04:39.182Z,26.82
2019-05-30T06:05:54.275Z,26.43
2019-05-30T06:06:39.199Z,26.34
2019-05-30T06:07:39.208Z,27.02
2019-05-30T06:08:39.224Z,26.82
2019-05-30T06:09:39.241Z,26.92
2019-05-30T06:10:38.996Z,26.82
2019-05-30T06:11:39.245Z,26.82
2019-05-30T06:12:39.255Z,26.92
2019-05-30T06:13:39.266Z,26.64
2019-05-30T06:14:39.276Z,26.25
2019-05-30T06:15:39.043Z,26.45
2019-05-30T06:16:39.296Z,26.56
2019-05-30T06:17:39.310Z,26.46
2019-05-30T06:18:39.318Z,25.68
2019-05-30T06:19:48.432Z,25.7
2019-05-30T06:20:39.094Z,25.51
2019-05-30T06:21:52.907Z,25.61
2019-05-30T06:22:39.362Z,24.84
2019-05-30T06:23:39.370Z,24.54
2019-05-30T06:24:39.386Z,24.75
2019-05-30T06:25:39.152Z,24.55
2019-05-30T06:26:39.404Z,24.46
2019-05-30T06:27:39.423Z,24.55
2019-05-30T06:28:39.451Z,24.26
2019-05-30T06:29:39.437Z,24.18
2019-05-30T06:30:39.456Z,24.37
2019-05-30T06:31:39.462Z,23.69
2019-05-30T06:32:39.472Z,24.37
2019-05-30T06:33:39.484Z,24.18
2019-05-30T06:34:42.210Z,24.08
2019-05-30T06:35:39.507Z,23.6
2019-05-30T06:36:39.518Z,23.21
2019-05-30T06:37:39.535Z,22.91
2019-05-30T06:38:39.546Z,23.31
2019-05-30T06:39:39.557Z,23.3
2019-05-30T06:40:39.607Z,23.3
2019-05-30T06:41:39.585Z,23.79
2019-05-30T06:42:39.592Z,23.39
2019-05-30T06:43:39.609Z,23.79
2019-05-30T06:44:39.615Z,23.88
2019-05-30T06:45:39.384Z,24.38
2019-05-30T06:46:39.645Z,23.5
2019-05-30T06:47:39.658Z,23.31
2019-05-30T06:48:39.664Z,23.31
2019-05-30T06:49:39.680Z,22.62
2019-05-30T06:50:39.441Z,22.72
2019-05-30T06:51:39.699Z,22.62
2019-05-30T06:52:39.711Z,22.62
2019-05-30T06:53:39.726Z,21.95
2019-05-30T06:54:41.008Z,22.05
2019-05-30T06:55:39.747Z,22.24
2019-05-30T06:57:39.770Z,22.45
2019-05-30T06:58:50.718Z,22.34
2019-05-30T06:59:41.068Z,22.06
2019-05-30T07:00:39.562Z,22.35
2019-05-30T07:01:39.820Z,21.66
2019-05-30T07:02:39.910Z,21.47
2019-05-30T07:03:39.937Z,21.76
2019-05-30T07:04:54.559Z,20.98
2019-05-30T07:05:40.982Z,21.58
2019-05-30T07:06:40.659Z,21.09
2019-05-30T07:07:40.233Z,20.9
2019-05-30T07:08:41.181Z,21.2
2019-05-30T07:09:39.917Z,20.91
2019-05-30T07:10:39.936Z,20.81
2019-05-30T07:11:39.949Z,20.43
2019-05-30T07:12:39.958Z,20.34
2019-05-30T07:13:39.970Z,19.86
2019-05-30T07:14:39.985Z,19.46
2019-05-30T07:15:39.999Z,19.17
2019-05-30T07:16:40.011Z,19.06
2019-05-30T07:17:41.298Z,18.96
2019-05-30T07:19:40.319Z,19.16
2019-05-30T07:24:40.116Z,18.88
2019-05-30T07:25:40.129Z,18.69
2019-05-30T07:26:40.152Z,18.49
2019-05-30T07:27:40.155Z,17.8
2019-05-30T07:28:40.166Z,18.1
2019-05-30T07:30:40.195Z,18.49
2019-05-30T07:31:40.211Z,17.9
2019-05-30T07:32:40.219Z,18
2019-05-30T07:38:40.300Z,17.52
2019-05-30T07:40:40.329Z,17.22
2019-05-30T07:41:41.615Z,17.31
2019-05-30T07:42:40.353Z,17.41
2019-05-30T07:43:40.366Z,17.02
2019-05-30T07:44:40.136Z,16.82
2019-05-30T07:45:40.400Z,17.21
2019-05-30T07:46:40.415Z,17.5
2019-05-30T07:47:41.066Z,17.5
2019-05-30T07:48:41.045Z,17.59
2019-05-30T07:49:41.168Z,17.5
2019-05-30T07:50:41.225Z,17.89
2019-05-30T07:51:41.485Z,17.89
2019-05-30T07:52:41.499Z,18.19
2019-05-30T07:53:41.585Z,17.6
2019-05-30T07:54:41.697Z,17.6
2019-05-30T07:55:41.682Z,17.6
2019-05-30T07:56:40.542Z,17.41
2019-05-30T07:57:43.563Z,17.02
2019-05-30T07:58:40.570Z,16.82
2019-05-30T07:59:41.123Z,16.33
2019-05-30T08:00:40.598Z,16.52
2019-05-30T08:01:41.926Z,16.62
2019-05-30T08:02:40.643Z,16.62
2019-05-30T08:03:41.289Z,16.72
2019-05-30T08:04:40.654Z,17.21
2019-05-30T08:05:41.402Z,17.6
2019-05-30T08:07:41.469Z,16.53
2019-05-30T08:08:40.721Z,15.83
2019-05-30T08:09:41.678Z,15.75
2019-05-30T08:10:40.508Z,16.33
2019-05-30T08:17:44.004Z,15.66
2019-05-30T08:19:40.877Z,15.75
2019-05-30T08:23:40.933Z,16.73
2019-05-30T08:25:40.962Z,16.54
2019-05-30T08:26:40.973Z,15.85
2019-05-30T08:27:41.201Z,15.75
2019-05-30T08:28:44.837Z,15.75
2019-05-30T08:29:41.018Z,16.53
2019-05-30T08:30:41.202Z,16.24
2019-05-30T08:31:41.329Z,16.63
2019-05-30T08:32:41.401Z,16.13
2019-05-30T08:33:42.147Z,16.52
2019-05-30T08:34:41.305Z,17.02
2019-05-30T08:35:51.324Z,16.71
2019-05-30T08:36:41.596Z,16.31
2019-05-30T08:37:41.839Z,16.69
2019-05-30T08:38:41.806Z,16.58
2019-05-30T08:39:41.788Z,16.08
2019-05-30T08:40:41.703Z,16.86
2019-05-30T08:41:41.926Z,16.95
2019-05-30T08:42:42.709Z,18.41
2019-05-30T08:43:42.116Z,18.11
2019-05-30T08:46:42.347Z,19.17
2019-05-30T08:47:42.941Z,19.26
2019-05-30T08:49:41.285Z,18.85
2019-05-30T08:50:46.605Z,19.03
2019-05-30T08:51:41.317Z,19.7
2019-05-30T08:52:41.335Z,18.82
2019-05-30T08:53:41.333Z,19.39
2019-05-30T08:54:41.349Z,19.78
2019-05-30T08:55:41.119Z,19.76
2019-05-30T08:56:41.366Z,19.46
2019-05-30T08:57:41.377Z,20.23
2019-05-30T08:58:41.395Z,20.52
2019-05-30T08:59:44.555Z,20.71
2019-05-30T09:00:41.160Z,21.86
2019-05-30T09:01:43.874Z,21.86
2019-05-30T09:02:41.425Z,22.24
2019-05-30T09:03:42.592Z,22.42
2019-05-30T09:04:42.229Z,22.99
2019-05-30T09:06:03.937Z,23.47
2019-05-30T09:06:42.359Z,23.65
2019-05-30T09:07:43.336Z,24.32
2019-05-30T09:08:42.468Z,25.66
2019-05-30T09:09:42.589Z,26.82
2019-05-30T09:10:42.687Z,26.72
2019-05-30T09:11:42.876Z,27.39
2019-05-30T09:12:47.465Z,27.76
2019-05-30T09:13:42.776Z,27.37
2019-05-30T09:14:43.168Z,28.52
2019-05-30T09:15:41.379Z,27.85
2019-05-30T09:17:44.566Z,29.27
2019-05-30T09:18:43.681Z,29.27
2019-05-30T09:19:43.170Z,29.46
2019-05-30T09:20:43.643Z,29.64
2019-05-30T09:21:43.478Z,30.22
2019-05-30T09:22:43.527Z,29.83
2019-05-30T09:25:43.527Z,30.88
2019-05-30T09:26:50.252Z,30.88
2019-05-30T09:27:44.673Z,30.79
2019-05-30T09:28:44.100Z,30.11
2019-05-30T09:29:44.436Z,30.67
2019-05-30T09:30:43.216Z,30.77
2019-05-30T09:31:44.470Z,30.48
2019-05-30T09:32:43.505Z,30.67
2019-05-30T09:33:44.509Z,30.77
2019-05-30T09:34:44.869Z,31.25
2019-05-30T09:35:44.812Z,32.12
2019-05-30T09:36:43.094Z,32.51
2019-05-30T09:38:45.273Z,33.17
2019-05-30T09:39:43.598Z,32.97
2019-05-30T09:40:43.597Z,33.74
2019-05-30T09:41:43.785Z,33.84
2019-05-30T09:42:56.161Z,33.94
2019-05-30T09:43:44.707Z,34.22
2019-05-30T09:44:44.771Z,34.4
2019-05-30T09:46:44.206Z,34.11
2019-05-30T09:47:45.578Z,34.69
2019-05-30T09:48:44.752Z,34.5
2019-05-30T09:49:43.138Z,33.92
2019-05-30T09:50:45.186Z,34.5
2019-05-30T09:51:42.347Z,35.17
2019-05-30T09:52:42.127Z,35.85
2019-05-30T09:53:42.670Z,36.13
2019-05-30T09:54:42.913Z,35.17
2019-05-30T09:55:42.893Z,35.75
2019-05-30T09:56:42.019Z,35.75
2019-05-30T09:57:42.923Z,35.65
2019-05-30T09:58:42.676Z,35.56
2019-05-30T09:59:41.557Z,35.46
2019-05-30T10:00:42.805Z,35.46
2019-05-30T10:01:42.538Z,35.94
2019-05-30T10:02:42.888Z,35.85
2019-05-30T10:03:41.939Z,35.94
2019-05-30T10:04:42.026Z,36.33
2019-05-30T10:05:43.255Z,35.75
2019-05-30T10:06:42.055Z,36.61
2019-05-30T10:07:43.506Z,35.75
2019-05-30T10:08:42.467Z,35.65
2019-05-30T10:09:42.727Z,36.04
2019-05-30T10:10:41.199Z,35.46
2019-05-30T10:11:41.442Z,36.04
2019-05-30T10:12:41.439Z,35.46
2019-05-30T10:13:41.442Z,36.61
2019-05-30T10:14:41.437Z,36.43
2019-05-30T10:15:41.469Z,36.13
2019-05-30T10:16:41.435Z,36.33
2019-05-30T10:17:41.433Z,36.61
2019-05-30T10:18:41.431Z,37.1
2019-05-30T10:19:41.428Z,36.81
2019-05-30T10:20:41.187Z,37.01
2019-05-30T10:21:41.423Z,36.04
2019-05-30T10:22:41.423Z,36.33
2019-05-30T10:23:41.424Z,36.43
2019-05-30T10:24:43.022Z,35.85
2019-05-30T10:25:41.174Z,35.94
2019-05-30T10:26:41.416Z,36.33
2019-05-30T10:27:41.418Z,36.52
2019-05-30T10:28:41.451Z,37.01
2019-05-30T10:29:41.413Z,37.02
2019-05-30T10:30:41.164Z,36.81
2019-05-30T10:31:41.409Z,37.12
2019-05-30T10:32:41.404Z,36.73
2019-05-30T10:33:41.405Z,37.02
2019-05-30T10:34:41.400Z,36.93
2019-05-30T10:35:41.404Z,37.02
2019-05-30T10:36:48.541Z,36.63
2019-05-30T10:37:41.403Z,36.54
2019-05-30T10:38:41.396Z,35.96
2019-05-30T10:39:41.390Z,36.83
2019-05-30T10:40:41.391Z,35.67
2019-05-30T10:41:41.390Z,34.7
2019-05-30T10:42:41.389Z,34.9
2019-05-30T10:43:41.386Z,34.7
2019-05-30T10:44:41.388Z,36.06
2019-05-30T10:45:41.384Z,35.86
2019-05-30T10:46:41.382Z,35.58
2019-05-30T10:47:41.425Z,35.19
2019-05-30T10:48:41.457Z,35.38
2019-05-30T10:49:41.376Z,35.1
2019-05-30T10:50:41.375Z,35.1
2019-05-30T10:51:41.386Z,35.58
2019-05-30T10:52:41.370Z,35.19
2019-05-30T10:53:41.381Z,34.8
2019-05-30T10:54:41.371Z,34.52
2019-05-30T10:55:41.130Z,35.77
2019-05-30T10:56:41.363Z,36.35
2019-05-30T10:57:41.377Z,36.15
2019-05-30T10:58:41.360Z,36.35
2019-05-30T10:59:41.357Z,35.48
2019-05-30T11:00:41.358Z,35.77
2019-05-30T11:01:41.361Z,35.67
2019-05-30T11:02:41.354Z,36.15
2019-05-30T11:03:41.353Z,35.77
2019-05-30T11:04:41.350Z,35.1
2019-05-30T11:05:41.346Z,35.28
2019-05-30T11:06:41.349Z,35.1
2019-05-30T11:08:03.762Z,34.8
2019-05-30T11:08:41.350Z,35.1
2019-05-30T11:09:41.344Z,35.67
2019-05-30T11:10:41.355Z,36.15
2019-05-30T11:11:41.347Z,36.15
2019-05-30T11:12:41.337Z,36.06
2019-05-30T11:13:41.333Z,36.25
2019-05-30T11:14:41.331Z,35.28
2019-05-30T11:15:41.330Z,35.58
2019-05-30T11:16:41.331Z,35.48
2019-05-30T11:17:41.329Z,35.58
2019-05-30T11:18:41.324Z,36.35
2019-05-30T11:19:41.323Z,36.35
2019-05-30T11:20:41.321Z,35.59
2019-05-30T11:21:41.320Z,34.44
2019-05-30T11:22:41.317Z,34.32
2019-05-30T11:23:41.317Z,34.44
2019-05-30T11:24:41.314Z,33.95
2019-05-30T11:25:41.324Z,33.86
2019-05-30T11:26:41.309Z,33.86
2019-05-30T11:27:42.582Z,33.66
2019-05-30T11:28:41.302Z,34.34
2019-05-30T11:29:41.304Z,34.7
2019-05-30T11:30:41.302Z,35.21
2019-05-30T11:31:41.300Z,35.58
2019-05-30T11:33:41.294Z,35.78
2019-05-30T11:34:41.051Z,35.78
2019-05-30T11:35:41.292Z,35.98
2019-05-30T11:36:41.289Z,35.4
2019-05-30T11:37:41.289Z,35.21
2019-05-30T11:38:41.294Z,34.53
2019-05-30T11:39:41.286Z,34.53
2019-05-30T11:40:41.058Z,35.69
2019-05-30T11:41:41.280Z,34.82
2019-05-30T11:42:41.282Z,34.44
2019-05-30T11:43:41.277Z,34.82
2019-05-30T11:44:41.273Z,34.84
2019-05-30T11:45:41.285Z,34.34
2019-05-30T11:46:41.270Z,34.24
2019-05-30T11:47:41.280Z,33.95
2019-05-30T11:48:41.268Z,34.72
2019-05-30T11:49:41.275Z,34.63
2019-05-30T11:50:41.272Z,34.74
2019-05-30T11:51:41.262Z,34.63
2019-05-30T11:52:41.265Z,34.55
2019-05-30T11:53:41.268Z,35.3
2019-05-30T11:54:41.257Z,35.22
2019-05-30T11:55:41.257Z,34.82
2019-05-30T11:56:41.258Z,34.55
2019-05-30T11:57:41.255Z,35.13
2019-05-30T11:58:41.249Z,34.84
2019-05-30T11:59:41.250Z,34.84
2019-05-30T12:00:41.253Z,35.42
2019-05-30T12:01:41.249Z,35.71
2019-05-30T12:02:41.246Z,35.52
2019-05-30T12:03:41.252Z,35.71
2019-05-30T12:04:41.243Z,35.05
2019-05-30T12:05:41.246Z,34.74
2019-05-30T12:06:41.240Z,34.55
2019-05-30T12:07:41.240Z,33.39
2019-05-30T12:08:41.240Z,33.8
2019-05-30T12:09:41.233Z,35.32
2019-05-30T12:10:41.235Z,35.13
2019-05-30T12:11:41.235Z,35.22
2019-05-30T12:12:41.232Z,35.42
2019-05-30T12:13:41.237Z,35.22
2019-05-30T12:14:41.230Z,34.76
2019-05-30T12:15:41.228Z,34.47
2019-05-30T12:16:41.223Z,34.36
2019-05-30T12:17:41.238Z,34.84
2019-05-30T12:18:41.224Z,34.74
2019-05-30T12:19:41.218Z,34.86
2019-05-30T12:20:41.221Z,34.86
2019-05-30T12:21:41.223Z,34.64
2019-05-30T12:22:41.215Z,34.66
2019-05-30T12:23:41.216Z,34.47
2019-05-30T12:24:41.213Z,34.86
2019-05-30T12:25:41.215Z,34.18
2019-05-30T12:26:41.208Z,34.28
2019-05-30T12:27:41.206Z,35.24
2019-05-30T12:28:41.206Z,35.34
2019-05-30T12:29:41.211Z,35.14
2019-05-30T12:31:01.665Z,34.56
2019-05-30T12:31:41.206Z,35.05
2019-05-30T12:32:41.202Z,34.95
2019-05-30T12:33:41.198Z,35.24
2019-05-30T12:34:41.200Z,35.34
2019-05-30T12:35:41.197Z,35.44
2019-05-30T12:36:41.209Z,34.76
2019-05-30T12:38:01.137Z,34.56
2019-05-30T12:38:41.192Z,34.56
2019-05-30T12:39:41.190Z,35.36
2019-05-30T12:40:41.205Z,34.86
2019-05-30T12:41:41.193Z,34.39
2019-05-30T12:42:41.187Z,33.89
2019-05-30T12:43:41.192Z,34.1
2019-05-30T12:44:41.184Z,34.76
2019-05-30T12:45:41.184Z,34.58
2019-05-30T12:46:41.183Z,34.39
2019-05-30T12:47:41.179Z,34.08
2019-05-30T12:48:41.197Z,34.1
2019-05-30T12:49:41.179Z,34.48
2019-05-30T12:50:41.182Z,34
2019-05-30T12:51:41.175Z,34.18
2019-05-30T12:52:41.181Z,34.47
2019-05-30T12:53:41.174Z,34.39
2019-05-30T12:54:41.171Z,34.47
2019-05-30T12:55:41.172Z,34.28
2019-05-30T12:56:41.178Z,34.58
2019-05-30T12:57:41.175Z,34.68
2019-05-30T12:58:41.172Z,34.78
2019-05-30T12:59:41.165Z,34.87
2019-05-30T13:00:41.167Z,34.87
2019-05-30T13:01:41.187Z,35.36
2019-05-30T13:02:41.160Z,34.78
2019-05-30T13:03:41.161Z,34.87
2019-05-30T13:04:41.159Z,34.87
2019-05-30T13:05:41.159Z,35.16
2019-05-30T13:06:41.157Z,34.78
2019-05-30T13:07:41.165Z,34.87
2019-05-30T13:08:41.161Z,34.79
2019-05-30T13:09:41.176Z,34.5
2019-05-30T13:10:41.151Z,34.31
2019-05-30T13:11:41.150Z,34.1
2019-05-30T13:12:40.909Z,34.41
2019-05-30T13:13:41.150Z,34.87
2019-05-30T13:14:41.146Z,34.89
2019-05-30T13:15:41.151Z,35.57
2019-05-30T13:16:41.146Z,35.08
2019-05-30T13:17:41.158Z,35.28
2019-05-30T13:18:40.907Z,34.99
2019-05-30T13:19:41.162Z,34.7
2019-05-30T13:20:41.140Z,34.99
2019-05-30T13:21:41.140Z,35.28
2019-05-30T13:22:41.143Z,35.95
2019-05-30T13:23:41.140Z,35.86
2019-05-30T13:24:41.147Z,34.79
2019-05-30T13:25:41.139Z,35.08
2019-05-30T13:26:41.137Z,34.5
2019-05-30T13:27:41.131Z,33.92
2019-05-30T13:28:41.148Z,33.73
2019-05-30T13:30:41.131Z,34.5
2019-05-30T13:31:41.132Z,34.12
2019-05-30T13:32:41.132Z,34.21
2019-05-30T13:33:41.359Z,34.21
2019-05-30T13:34:54.765Z,34.21
2019-05-30T13:35:41.130Z,34.02
2019-05-30T13:36:41.124Z,34.12
2019-05-30T13:37:41.123Z,34.5
2019-05-30T13:38:41.126Z,34.21
2019-05-30T13:39:41.121Z,34.41
2019-05-30T13:40:41.119Z,34.5
2019-05-30T13:41:41.117Z,34.6
2019-05-30T13:42:41.116Z,34.99
2019-05-30T13:43:41.461Z,34.62
2019-05-30T13:44:41.115Z,34.42
2019-05-30T13:45:41.114Z,34.23
2019-05-30T13:46:41.113Z,34.71
2019-05-30T13:47:41.114Z,34.42
2019-05-30T13:48:41.111Z,34.33
2019-05-30T13:49:41.110Z,34.23
2019-05-30T13:50:41.113Z,34.42
2019-05-30T13:51:41.117Z,34.52
2019-05-30T13:52:40.866Z,34.23